Main page
METAR-TAF:

METAR-TAF

Airports :

Albert – Picardie Airport

Albert, France

latitude: 49-58-21N, longitude: 002-41-29E, elevation: 111 m

Current weather observation

The report was made 24 minutes ago, at 05:30 UTC
Wind 9 kt from the South/Southwest
Temperature 16°C
Humidity 94%
Pressure 1018 hPa
Visibility 10 km or more
Overcast at a height of 600 ft

METAR: LFAQ 190530Z AUTO 21009KT 9999 OVC006 16/15 Q1018 TEMPO 3000 DZRA OVC003

Time: 07:54 (05:54 UTC)

Forecast

The report was made 54 minutes ago, at 05:00 UTC
Forecast valid from 19 at 06 UTC to 19 at 15 UTC
Wind 10 kt from the South/Southwest
Visibility 10 km or more
Broken clouds at a height of 700 ft
Overcast at a height of 1300 ft
Temporary
from 19 at 06 UTC to 19 at 08 UTC
Visibility: 3000 m
Overcast at a height of 300 ft
drizzle, rain
Becoming
from 19 at 08 UTC to 19 at 11 UTC
Scattered clouds at a height of 3000 ft

TAF: LFAQ 190500Z 1906/1915 20010KT 9999 BKN007 OVC013 TEMPO 1906/1908 3000 DZRA OVC003 BECMG 1908/1911 SCT030

Weather observations and forecasts of more than 4000 airports (METAR and TAF reports).

The available stations are represented by yellow and red dots on the map.

Hover mouse over dot to see the name of the station.

Then click to see weather observations and forecasts.

To change the map : click on the green buttons with a black cross to zoom in, on the green button with a dash to zoom out, or on the green arrows for adjacent maps.


METAR-TAF: